Time;durP1;ratioP1;P1;durP2;ratioP2;P2;SDS_P1;SDS_P2;PMS_P1;PMS_P2;Temp;Humidity;BMP_temperature;BMP_pressure;BME280_temperature;BME280_humidity;BME280_pressure;Samples;Min_cycle;Max_cycle;Signal;HPM_P1;HPM_P2
2022/08/20 00:01:08;;;;;;;3.88;2.15;;;;;;;18.73;75.10;98190.03;4882921;29;20067;-74
2022/08/20 00:03:37;;;;;;;3.13;1.50;;;;;;;18.75;74.39;98185.31;4881195;29;20416;-73
2022/08/20 00:06:18;;;;;;;4.18;1.80;;;;;;;18.78;74.08;98192.13;4888183;29;20118;-73
2022/08/20 00:08:45;;;;;;;2.55;1.55;;;;;;;18.73;74.99;98191.91;4882818;29;20076;-73
2022/08/20 00:11:16;;;;;;;3.83;1.73;;;;;;;18.72;74.07;98193.75;4874770;29;20049;-74
2022/08/20 00:13:48;;;;;;;2.20;1.95;;;;;;;18.61;75.31;98197.88;4877158;29;20045;-73
2022/08/20 00:16:16;;;;;;;2.38;1.50;;;;;;;18.48;75.86;98202.47;4879729;29;20412;-73
2022/08/20 00:18:43;;;;;;;1.92;1.70;;;;;;;18.39;75.94;98197.34;4884227;29;20055;-74
2022/08/20 00:21:12;;;;;;;1.60;1.50;;;;;;;18.35;76.63;98206.84;4878859;29;20104;-73
2022/08/20 00:23:49;;;;;;;2.08;1.38;;;;;;;18.28;75.58;98198.00;4881523;29;20584;-73
2022/08/20 00:26:17;;;;;;;1.73;1.53;;;;;;;18.23;77.16;98195.13;4877305;29;20123;-73
2022/08/20 00:28:43;;;;;;;3.22;1.95;;;;;;;18.16;77.77;98210.38;4891877;29;20052;-74
2022/08/20 00:31:13;;;;;;;2.42;1.77;;;;;;;18.10;77.86;98206.69;4878911;29;20045;-73
2022/08/20 00:33:40;;;;;;;2.25;1.67;;;;;;;18.08;77.80;98202.56;4888142;29;20124;-73
2022/08/20 00:36:11;;;;;;;1.88;1.48;;;;;;;18.05;77.58;98200.31;4889967;29;20041;-73
2022/08/20 00:38:39;;;;;;;2.08;1.70;;;;;;;18.06;78.13;98199.25;4890165;29;20057;-73
2022/08/20 00:41:06;;;;;;;1.50;1.40;;;;;;;18.03;78.19;98199.69;4881582;29;20044;-72
2022/08/20 00:43:37;;;;;;;4.25;1.63;;;;;;;18.00;78.58;98203.59;4885723;29;20057;-72
2022/08/20 00:46:10;;;;;;;2.38;1.40;;;;;;;17.96;78.58;98208.56;4873274;29;21819;-73
2022/08/20 00:48:39;;;;;;;1.40;1.30;;;;;;;17.91;78.46;98215.56;4888823;29;20067;-73
2022/08/20 00:51:21;;;;;;;2.78;1.38;;;;;;;17.93;78.80;98221.50;4882273;29;20461;-73
2022/08/20 00:53:48;;;;;;;1.73;1.60;;;;;;;17.88;78.88;98218.66;4878547;29;20044;-73
2022/08/20 00:56:14;;;;;;;2.42;1.63;;;;;;;17.86;78.99;98221.53;4879288;29;20055;-72
2022/08/20 00:58:43;;;;;;;1.92;1.23;;;;;;;17.79;78.98;98220.69;4886505;29;20436;-74
2022/08/20 01:01:10;;;;;;;1.83;1.67;;;;;;;17.65;79.45;98219.03;4890189;29;20041;-73
2022/08/20 01:03:38;;;;;;;1.67;1.52;;;;;;;17.50;79.97;98219.22;4882201;29;20528;-73
2022/08/20 01:06:05;;;;;;;1.58;1.45;;;;;;;17.37;80.09;98216.50;4883584;29;20500;-73
2022/08/20 01:08:32;;;;;;;2.08;1.50;;;;;;;17.25;80.63;98224.31;4884115;29;20053;-73
2022/08/20 01:11:20;;;;;;;2.00;1.42;;;;;;;17.13;81.00;98231.25;4881059;29;20521;-73
2022/08/20 01:13:47;;;;;;;2.05;1.63;;;;;;;17.06;81.64;98247.25;4886193;29;20056;-72
2022/08/20 01:16:21;;;;;;;1.63;1.52;;;;;;;17.08;81.77;98238.03;4884027;29;20401;-73
2022/08/20 01:18:48;;;;;;;1.60;1.50;;;;;;;17.14;81.96;98240.91;4908922;29;20623;-72
2022/08/20 01:21:22;;;;;;;1.40;1.30;;;;;;;17.20;81.67;98237.47;4880503;29;20052;-73
2022/08/20 01:24:07;;;;;;;2.08;1.67;;;;;;;17.30;81.55;98237.91;4874773;29;20049;-72
2022/08/20 01:26:37;;;;;;;1.63;1.52;;;;;;;17.38;81.38;98242.22;4903154;29;20517;-72
2022/08/20 01:29:12;;;;;;;1.33;1.23;;;;;;;17.51;81.61;98239.59;4872540;29;20040;-73
2022/08/20 01:31:40;;;;;;;1.88;1.50;;;;;;;17.62;81.19;98236.31;4900782;29;20052;-72
2022/08/20 01:34:13;;;;;;;4.10;1.45;;;;;;;17.71;80.54;98243.09;4892356;29;20045;-73
2022/08/20 01:36:43;;;;;;;4.40;1.50;;;;;;;17.80;79.81;98243.78;4877222;29;20057;-73
2022/08/20 01:39:16;;;;;;;2.83;1.60;;;;;;;17.83;79.88;98243.34;4881140;29;20067;-73
2022/08/20 01:42:16;;;;;;;1.90;1.75;;;;;;;17.93;79.51;98254.47;4879763;29;20071;-74
2022/08/20 01:44:44;;;;;;;1.58;1.48;;;;;;;17.95;79.79;98252.41;4883592;29;20574;-73
2022/08/20 01:47:15;;;;;;;3.30;1.60;;;;;;;18.04;78.94;98260.25;4885701;29;20045;-73
2022/08/20 01:49:50;;;;;;;1.70;1.40;;;;;;;18.11;78.60;98255.69;4884831;29;20045;-73
2022/08/20 01:52:25;;;;;;;2.70;1.50;;;;;;;18.26;78.27;98255.47;4879827;29;20059;-74
2022/08/20 01:54:52;;;;;;;1.60;1.38;;;;;;;18.26;77.39;98260.84;4879419;29;20048;-73
2022/08/20 01:57:20;;;;;;;1.30;1.20;;;;;;;18.26;76.80;98258.97;4869247;29;20529;-73
2022/08/20 01:59:49;;;;;;;1.60;1.50;;;;;;;18.26;77.89;98250.94;4876399;29;20068;-73
2022/08/20 02:02:15;;;;;;;1.13;1.02;;;;;;;18.24;78.13;98261.03;4887452;29;20041;-73
2022/08/20 02:04:42;;;;;;;2.70;1.80;;;;;;;18.25;77.67;98262.69;4877148;29;20059;-73
2022/08/20 02:07:14;;;;;;;2.20;1.80;;;;;;;18.22;77.95;98263.13;4877932;29;20378;-73
2022/08/20 02:09:41;;;;;;;1.60;1.48;;;;;;;18.21;77.90;98261.44;4879847;29;20067;-73
2022/08/20 02:12:09;;;;;;;2.08;1.50;;;;;;;18.19;78.14;98271.53;4883338;29;20052;-73
2022/08/20 02:14:47;;;;;;;1.52;1.42;;;;;;;18.11;78.06;98261.03;4877298;29;20041;-74
2022/08/20 02:17:14;;;;;;;1.40;1.30;;;;;;;18.07;78.84;98268.66;4878558;29;21717;-73
2022/08/20 02:19:45;;;;;;;3.25;1.58;;;;;;;18.05;79.30;98269.91;4879551;29;20064;-73
2022/08/20 02:22:18;;;;;;;2.03;1.55;;;;;;;18.01;79.11;98269.50;4882327;29;20060;-73
2022/08/20 02:24:44;;;;;;;3.05;1.60;;;;;;;18.03;79.03;98271.97;4881149;29;20055;-73
2022/08/20 02:27:12;;;;;;;2.25;1.50;;;;;;;17.99;79.34;98264.34;4882637;29;20116;-73
2022/08/20 02:29:38;;;;;;;4.18;1.55;;;;;;;17.97;79.15;98269.06;4880586;29;20045;-73
2022/08/20 02:32:06;;;;;;;1.67;1.40;;;;;;;17.98;79.21;98285.94;4874998;29;20045;-73
2022/08/20 02:34:53;;;;;;;1.52;1.40;;;;;;;17.96;79.20;98286.19;4884990;29;20116;-74
2022/08/20 02:37:19;;;;;;;2.40;1.65;;;;;;;17.95;79.13;98283.69;4874045;29;20060;-73
2022/08/20 02:39:46;;;;;;;1.70;1.52;;;;;;;17.90;79.52;98275.44;4878964;29;20057;-74
2022/08/20 02:42:13;;;;;;;1.63;1.52;;;;;;;17.85;79.95;98272.56;4885208;29;20479;-73
2022/08/20 02:44:39;;;;;;;1.50;1.40;;;;;;;17.77;79.97;98269.06;4886992;29;20044;-73
2022/08/20 02:47:06;;;;;;;1.52;1.42;;;;;;;17.79;79.95;98271.53;4881263;29;20448;-73
2022/08/20 02:49:33;;;;;;;2.97;1.63;;;;;;;17.84;80.38;98268.25;4886606;29;20044;-72
2022/08/20 02:52:00;;;;;;;2.65;1.77;;;;;;;17.87;79.88;98263.31;4878806;29;20101;-72
2022/08/20 02:54:28;;;;;;;2.65;1.63;;;;;;;17.91;79.71;98258.38;4879889;29;20044;-72
2022/08/20 02:56:54;;;;;;;2.00;1.42;;;;;;;17.98;79.33;98251.16;4876719;29;20040;-72
2022/08/20 02:59:21;;;;;;;2.47;1.60;;;;;;;18.02;79.62;98251.59;4887560;29;20052;-72
2022/08/20 03:01:48;;;;;;;1.63;1.52;;;;;;;18.04;79.14;98249.53;4880794;29;20509;-72
2022/08/20 03:04:26;;;;;;;1.45;1.33;;;;;;;18.08;78.87;98253.44;4885588;29;20052;-72
2022/08/20 03:06:53;;;;;;;3.05;1.65;;;;;;;18.11;78.69;98251.16;4880659;29;20057;-72
2022/08/20 03:09:19;;;;;;;2.38;1.98;;;;;;;18.09;77.41;98252.38;4879095;29;20045;-72
2022/08/20 03:11:46;;;;;;;1.80;1.30;;;;;;;18.11;78.67;98253.81;4877173;29;20049;-72
2022/08/20 03:14:12;;;;;;;1.83;1.60;;;;;;;18.12;77.67;98254.69;4883627;29;20056;-72
2022/08/20 03:16:39;;;;;;;1.80;1.40;;;;;;;18.19;76.63;98250.97;4886526;29;20045;-73
2022/08/20 03:19:06;;;;;;;4.63;2.05;;;;;;;18.24;78.06;98258.34;4877584;29;20049;-72
2022/08/20 03:21:34;;;;;;;1.60;1.50;;;;;;;18.24;77.44;98262.88;4876381;29;20449;-72
2022/08/20 03:24:00;;;;;;;2.20;1.45;;;;;;;18.26;77.69;98252.81;4884504;29;20410;-73
2022/08/20 03:26:27;;;;;;;1.85;1.67;;;;;;;18.30;77.79;98254.88;4882784;29;20516;-72
2022/08/20 03:28:53;;;;;;;2.63;1.83;;;;;;;18.35;77.74;98254.22;4880912;29;20052;-72
2022/08/20 03:31:20;;;;;;;2.50;1.85;;;;;;;18.32;78.25;98252.78;4881978;29;20051;-72
2022/08/20 03:33:47;;;;;;;3.28;2.13;;;;;;;18.28;78.11;98246.22;4883708;29;20045;-72
2022/08/20 03:36:19;;;;;;;1.77;1.42;;;;;;;18.27;78.00;98247.22;4875922;29;20079;-73
2022/08/20 03:38:54;;;;;;;3.40;1.60;;;;;;;18.27;78.43;98246.41;4874802;29;20475;-73
2022/08/20 03:41:22;;;;;;;5.25;1.60;;;;;;;18.25;78.32;98251.16;4878277;29;20049;-73
2022/08/20 03:43:49;;;;;;;2.70;1.65;;;;;;;18.25;77.55;98246.63;4878775;29;20416;-73
2022/08/20 03:46:15;;;;;;;3.17;1.90;;;;;;;18.21;77.50;98246.19;4878346;29;20533;-73
2022/08/20 03:48:48;;;;;;;2.53;1.92;;;;;;;18.19;78.52;98252.78;4867556;29;20064;-73
2022/08/20 03:51:21;;;;;;;3.47;2.10;;;;;;;18.16;78.34;98250.53;4875111;29;20053;-73
2022/08/20 03:53:48;;;;;;;1.90;1.75;;;;;;;18.16;78.58;98254.03;4874785;29;20053;-73
2022/08/20 03:56:16;;;;;;;2.67;1.70;;;;;;;18.12;79.19;98258.16;4879835;29;20055;-73
2022/08/20 03:58:42;;;;;;;4.53;2.00;;;;;;;18.07;79.51;98257.97;4887839;29;20056;-73
2022/08/20 04:01:09;;;;;;;2.10;2.00;;;;;;;18.05;79.47;98262.69;4879132;29;20132;-73
2022/08/20 04:03:57;;;;;;;4.18;2.10;;;;;;;18.10;79.11;98272.78;4885477;29;20056;-74
2022/08/20 04:06:26;;;;;;;2.35;2.00;;;;;;;18.08;79.45;98267.63;4880932;29;20493;-73
2022/08/20 04:08:53;;;;;;;2.35;2.15;;;;;;;18.08;79.32;98261.47;4910891;29;20053;-74
2022/08/20 04:11:19;;;;;;;2.67;1.95;;;;;;;18.05;79.84;98264.56;4876877;29;20049;-73
2022/08/20 04:13:46;;;;;;;1.88;1.77;;;;;;;18.01;79.94;98266.84;4885954;29;20049;-73
2022/08/20 04:16:15;;;;;;;1.85;1.70;;;;;;;17.94;79.98;98266.00;4887494;29;20044;-73
2022/08/20 04:18:42;;;;;;;3.17;2.33;;;;;;;17.89;79.94;98274.63;4886480;29;20505;-73
2022/08/20 04:21:31;;;;;;;2.42;2.10;;;;;;;17.88;80.19;98269.50;4881972;29;20412;-73
2022/08/20 04:24:00;;;;;;;1.73;1.58;;;;;;;17.85;80.49;98273.41;4880566;29;20048;-74
2022/08/20 04:26:26;;;;;;;2.70;2.10;;;;;;;17.82;80.90;98276.47;4877241;29;20037;-73
2022/08/20 04:28:54;;;;;;;2.33;2.03;;;;;;;17.81;80.90;98280.19;4885461;29;20041;-73
2022/08/20 04:31:23;;;;;;;2.53;1.85;;;;;;;17.78;80.84;98280.56;4877423;29;20052;-73
2022/08/20 04:33:51;;;;;;;2.55;1.45;;;;;;;17.78;80.73;98283.25;4886497;29;20056;-73
2022/08/20 04:36:18;;;;;;;2.25;2.05;;;;;;;17.74;81.16;98282.00;4875058;29;20037;-73
2022/08/20 04:38:44;;;;;;;3.45;3.08;;;;;;;17.76;81.31;98278.09;4879283;29;20096;-73
2022/08/20 04:41:20;;;;;;;4.27;3.70;;;;;;;17.76;81.45;98278.09;4883187;29;20041;-74
2022/08/20 04:43:50;;;;;;;3.83;3.53;;;;;;;17.70;81.03;98284.25;4888153;29;20045;-73
2022/08/20 04:46:18;;;;;;;4.38;3.35;;;;;;;17.66;81.26;98282.19;4908425;29;21009;-73
2022/08/20 04:48:44;;;;;;;2.80;2.55;;;;;;;17.62;81.48;98289.00;4879519;29;20049;-73
2022/08/20 04:51:17;;;;;;;4.60;4.20;;;;;;;17.59;82.05;98284.03;4878951;29;20081;-73
2022/08/20 04:53:44;;;;;;;6.32;4.50;;;;;;;17.61;82.12;98287.31;4878613;29;20505;-73
2022/08/20 04:56:31;;;;;;;5.10;4.28;;;;;;;17.61;81.96;98287.31;4881494;29;20072;-73
2022/08/20 04:58:59;;;;;;;6.05;4.35;;;;;;;17.61;82.56;98287.31;4894586;29;20068;-73
2022/08/20 05:01:26;;;;;;;5.18;4.75;;;;;;;17.63;82.09;98296.78;4881706;29;21838;-72
2022/08/20 05:03:54;;;;;;;6.93;4.32;;;;;;;17.63;82.16;98291.44;4891392;29;20057;-72
2022/08/20 05:06:24;;;;;;;5.75;4.10;;;;;;;17.67;82.41;98299.91;4882857;29;20400;-72
2022/08/20 05:08:52;;;;;;;5.72;4.00;;;;;;;17.72;81.95;98303.63;4881280;29;20045;-72
2022/08/20 05:11:20;;;;;;;4.20;3.80;;;;;;;17.76;81.49;98301.34;4881946;29;20048;-72
2022/08/20 05:14:04;;;;;;;5.10;4.03;;;;;;;17.81;81.82;98312.31;4878600;29;20055;-72
2022/08/20 05:16:36;;;;;;;4.95;3.63;;;;;;;17.83;81.65;98310.25;4884224;29;20105;-72
2022/08/20 05:19:03;;;;;;;3.58;3.28;;;;;;;17.82;81.82;98313.13;4878366;29;20500;-72
2022/08/20 05:21:30;;;;;;;3.90;3.58;;;;;;;17.76;82.07;98317.41;4881572;29;20417;-72
2022/08/20 05:23:56;;;;;;;4.13;3.72;;;;;;;17.76;82.07;98318.22;4889498;29;20048;-72
2022/08/20 05:26:25;;;;;;;4.28;3.90;;;;;;;17.81;82.21;98323.00;4877439;29;20038;-71
2022/08/20 05:28:51;;;;;;;5.57;4.70;;;;;;;17.87;82.01;98322.19;4884015;29;20053;-72
2022/08/20 05:31:25;;;;;;;5.28;4.88;;;;;;;17.89;81.86;98322.81;4884339;29;20052;-72
2022/08/20 05:33:58;;;;;;;5.65;4.78;;;;;;;17.92;81.49;98330.44;4888280;29;20500;-72
2022/08/20 05:36:25;;;;;;;5.10;4.43;;;;;;;17.95;81.42;98327.34;4883947;29;20045;-72
2022/08/20 05:38:53;;;;;;;5.38;4.63;;;;;;;17.93;81.32;98323.22;4885349;29;20056;-72
2022/08/20 05:41:20;;;;;;;7.55;4.90;;;;;;;17.90;81.17;98326.31;4879939;29;20508;-72
2022/08/20 05:43:56;;;;;;;5.15;4.43;;;;;;;17.86;81.41;98331.25;4876968;29;20057;-72
2022/08/20 05:46:23;;;;;;;5.82;4.47;;;;;;;17.89;81.19;98332.69;4870290;29;20068;-72
2022/08/20 05:48:49;;;;;;;6.35;4.95;;;;;;;17.93;81.65;98337.44;4876563;29;20056;-72
2022/08/20 05:51:16;;;;;;;7.07;4.65;;;;;;;17.91;81.71;98336.81;4883830;29;20054;-72
2022/08/20 05:53:43;;;;;;;4.82;4.40;;;;;;;17.95;81.61;98338.03;4881760;29;20128;-72
2022/08/20 05:56:12;;;;;;;7.68;5.07;;;;;;;17.93;80.82;98331.25;4878558;29;20041;-72
2022/08/20 05:58:39;;;;;;;4.68;4.25;;;;;;;17.92;80.87;98333.09;4885755;29;20063;-72
2022/08/20 06:01:05;;;;;;;4.70;4.28;;;;;;;17.93;80.95;98331.25;4885800;29;20128;-72
2022/08/20 06:06:17;;;;;;;5.30;4.35;;;;;;;17.99;81.15;98333.94;4875423;29;20049;-72
2022/08/20 06:09:04;;;;;;;6.57;4.68;;;;;;;18.05;80.82;98343.00;4881072;29;20053;-72
2022/08/20 06:11:31;;;;;;;4.85;4.43;;;;;;;18.09;80.77;98336.22;4873629;29;20060;-72
2022/08/20 06:14:03;;;;;;;7.90;4.73;;;;;;;18.16;80.80;98337.03;4885064;29;20052;-72
2022/08/20 06:16:30;;;;;;;7.43;4.95;;;;;;;18.23;80.49;98338.91;4885333;29;20296;-72
2022/08/20 06:18:57;;;;;;;5.00;4.47;;;;;;;18.28;80.31;98341.78;4872955;29;20073;-72
2022/08/20 06:21:24;;;;;;;4.55;4.15;;;;;;;18.43;80.11;98339.72;4876816;29;20458;-72
2022/08/20 06:23:51;;;;;;;5.65;4.65;;;;;;;18.62;79.65;98338.06;4887378;29;20045;-72
2022/08/20 06:26:26;;;;;;;5.72;4.50;;;;;;;18.74;79.02;98338.25;4876613;29;20041;-73
2022/08/20 06:28:56;;;;;;;5.20;4.70;;;;;;;18.91;78.33;98335.97;4873679;29;20044;-73
2022/08/20 06:31:23;;;;;;;6.88;4.30;;;;;;;18.87;78.52;98340.94;4874661;29;20096;-73
2022/08/20 06:33:49;;;;;;;4.90;4.07;;;;;;;18.92;78.18;98341.13;4877532;29;20055;-73
2022/08/20 06:36:16;;;;;;;4.68;4.05;;;;;;;18.92;78.24;98343.81;4875407;29;20037;-73
2022/08/20 06:38:45;;;;;;;4.93;3.88;;;;;;;18.94;78.21;98340.94;4885121;29;20049;-73
2022/08/20 06:41:12;;;;;;;5.47;4.03;;;;;;;19.00;78.21;98340.88;4886969;29;20040;-73
2022/08/20 06:43:39;;;;;;;8.57;4.75;;;;;;;19.07;78.35;98338.19;4908714;29;20077;-73
2022/08/20 06:46:06;;;;;;;5.07;4.38;;;;;;;19.21;77.32;98353.19;4867474;29;20090;-73
2022/08/20 06:48:33;;;;;;;7.93;4.28;;;;;;;19.35;76.97;98356.66;4878669;29;20408;-72
2022/08/20 06:51:00;;;;;;;5.85;4.28;;;;;;;19.42;75.73;98352.09;4889909;29;20063;-72
2022/08/20 06:53:27;;;;;;;4.72;3.72;;;;;;;19.48;76.17;98359.31;4885177;29;20124;-73
2022/08/20 06:55:57;;;;;;;4.53;3.80;;;;;;;19.56;75.88;98358.22;4875669;29;20053;-72
2022/08/20 06:58:24;;;;;;;4.80;4.30;;;;;;;19.58;76.27;98358.81;4874652;29;20049;-73
2022/08/20 07:01:09;;;;;;;4.55;4.15;;;;;;;19.62;76.00;98359.25;4871813;29;20037;-73
2022/08/20 07:03:38;;;;;;;3.60;3.30;;;;;;;19.70;75.27;98357.16;4876407;29;20532;-72
2022/08/20 07:06:21;;;;;;;4.35;3.72;;;;;;;19.76;75.40;98360.00;4882522;29;20492;-73
2022/08/20 07:08:47;;;;;;;6.13;3.70;;;;;;;19.73;75.38;98356.72;4881659;29;20074;-73
2022/08/20 07:11:14;;;;;;;4.60;3.88;;;;;;;19.75;75.56;98359.19;4877254;29;20053;-73
2022/08/20 07:13:40;;;;;;;5.10;4.25;;;;;;;19.38;76.52;98366.97;4877477;29;20045;-73
2022/08/20 07:16:07;;;;;;;4.68;4.28;;;;;;;19.08;78.41;98355.94;4883069;29;20047;-74
2022/08/20 07:18:34;;;;;;;4.80;4.15;;;;;;;18.86;80.01;98366.91;4876602;29;20132;-74
2022/08/20 07:21:01;;;;;;;5.00;4.60;;;;;;;18.74;82.50;98360.50;4883263;29;20068;-74
2022/08/20 07:23:29;;;;;;;4.88;4.20;;;;;;;18.70;83.24;98353.94;4874372;29;20059;-75
2022/08/20 07:25:56;;;;;;;6.22;5.13;;;;;;;18.61;84.59;98361.34;4880727;29;20037;-75
2022/08/20 07:28:27;;;;;;;6.72;5.00;;;;;;;18.59;84.67;98357.25;4883125;29;20079;-75
2022/08/20 07:33:42;;;;;;;6.47;5.85;;;;;;;18.65;85.34;98367.13;4886784;29;20049;-74
2022/08/20 07:36:10;;;;;;;6.03;5.40;;;;;;;18.72;85.73;98369.78;4881408;29;20495;-75
2022/08/20 07:38:37;;;;;;;7.03;5.50;;;;;;;18.83;86.27;98375.38;4884726;29;20055;-73
2022/08/20 07:41:12;;;;;;;6.30;5.70;;;;;;;18.94;85.76;98381.13;4876703;29;20041;-73
2022/08/20 07:43:40;;;;;;;5.60;4.93;;;;;;;19.06;85.42;98382.13;4884106;29;20053;-73
2022/08/20 07:46:07;;;;;;;6.47;5.53;;;;;;;19.15;85.40;98385.41;4880615;29;20068;-73
2022/08/20 07:48:38;;;;;;;6.97;6.28;;;;;;;19.30;85.07;98389.50;4872748;29;20060;-73
2022/08/20 07:51:06;;;;;;;8.05;6.55;;;;;;;19.44;84.35;98384.91;4894585;29;20040;-73
2022/08/20 07:53:34;;;;;;;10.20;5.80;;;;;;;19.50;82.47;98392.09;4878875;29;20467;-74
2022/08/20 07:56:07;;;;;;;6.05;5.38;;;;;;;19.62;83.04;98394.94;4880573;29;20120;-73
2022/08/20 07:58:35;;;;;;;5.60;4.85;;;;;;;19.87;81.81;98378.94;4876469;29;20040;-73
2022/08/20 08:01:04;;;;;;;6.82;5.30;;;;;;;20.06;81.08;98387.91;4904557;29;20076;-74
2022/08/20 08:03:31;;;;;;;8.02;5.88;;;;;;;20.24;80.35;98386.34;4886739;29;20052;-74
2022/08/20 08:06:19;;;;;;;5.88;5.38;;;;;;;20.49;78.82;98389.06;4886212;29;20052;-73
2022/08/20 08:09:08;;;;;;;7.75;5.35;;;;;;;20.39;75.49;98384.19;4879753;29;20045;-73
2022/08/20 08:11:38;;;;;;;5.95;4.90;;;;;;;20.41;77.04;98387.47;4903330;29;20078;-73
2022/08/20 08:14:06;;;;;;;8.65;5.22;;;;;;;20.51;76.72;98384.28;4872137;29;20044;-73
2022/08/20 08:16:35;;;;;;;6.05;5.38;;;;;;;20.84;76.72;98378.66;4876639;29;20049;-73
2022/08/20 08:19:05;;;;;;;7.05;5.30;;;;;;;21.15;76.12;98379.56;4873656;29;20045;-73
2022/08/20 08:21:32;;;;;;;7.10;5.68;;;;;;;21.30;73.71;98374.66;4877900;29;20057;-73
2022/08/20 08:23:59;;;;;;;8.05;5.63;;;;;;;21.44;73.61;98378.03;4875724;29;20049;-73
2022/08/20 08:26:27;;;;;;;6.03;4.82;;;;;;;21.54;74.17;98374.78;4872300;29;20041;-73
2022/08/20 08:28:54;;;;;;;6.65;5.30;;;;;;;21.83;73.51;98370.50;4872434;29;20048;-73
2022/08/20 08:31:21;;;;;;;6.13;5.30;;;;;;;22.12;72.17;98360.75;4872631;29;20052;-73
2022/08/20 08:33:47;;;;;;;5.18;4.68;;;;;;;22.07;71.83;98368.69;4878926;29;20056;-73
2022/08/20 08:36:15;;;;;;;4.95;4.40;;;;;;;21.73;71.57;98360.25;4878080;29;20045;-73
2022/08/20 08:38:43;;;;;;;7.30;5.10;;;;;;;21.21;73.63;98365.22;4878500;29;20045;-73
2022/08/20 08:41:18;;;;;;;5.60;4.82;;;;;;;21.05;74.84;98366.63;4873710;29;20051;-73
2022/08/20 08:43:48;;;;;;;6.10;4.97;;;;;;;20.82;75.61;98369.97;4889080;29;20040;-73
2022/08/20 08:46:21;;;;;;;7.00;4.97;;;;;;;20.65;76.02;98379.66;4878976;29;20045;-73
2022/08/20 08:48:52;;;;;;;7.35;5.00;;;;;;;20.60;77.54;98380.31;4878324;29;20049;-73
2022/08/20 08:51:39;;;;;;;8.40;5.68;;;;;;;20.69;77.32;98384.34;4875717;29;20049;-73
2022/08/20 08:54:07;;;;;;;5.40;4.57;;;;;;;20.85;77.56;98374.91;4876081;29;20053;-73
2022/08/20 08:56:34;;;;;;;5.45;4.95;;;;;;;21.12;75.10;98374.66;4875004;29;20048;-73
2022/08/20 08:59:04;;;;;;;5.57;5.05;;;;;;;21.08;74.53;98371.56;4876468;29;20052;-73
2022/08/20 09:01:33;;;;;;;6.38;5.47;;;;;;;20.98;75.88;98373.94;4903725;29;20123;-73
2022/08/20 09:04:23;;;;;;;7.00;4.80;;;;;;;21.26;73.43;98376.13;4899040;29;21405;-73
2022/08/20 09:06:52;;;;;;;5.43;4.90;;;;;;;21.59;72.67;98370.38;4879846;29;20605;-73
2022/08/20 09:09:22;;;;;;;7.38;5.32;;;;;;;21.88;71.67;98362.53;4877902;29;20053;-73
2022/08/20 09:11:52;;;;;;;5.20;4.70;;;;;;;22.06;72.17;98370.53;4861405;29;20040;-73
2022/08/20 09:14:19;;;;;;;6.10;5.50;;;;;;;22.07;71.44;98366.00;4877703;29;20092;-74
2022/08/20 09:16:46;;;;;;;6.80;4.22;;;;;;;21.90;69.29;98361.25;4880070;29;20116;-72
2022/08/20 09:19:19;;;;;;;5.72;3.97;;;;;;;21.73;70.03;98368.34;4873957;29;20123;-73
2022/08/20 09:21:46;;;;;;;5.60;3.83;;;;;;;22.08;69.00;98362.25;4876729;29;20057;-73
2022/08/20 09:24:12;;;;;;;4.10;3.80;;;;;;;22.42;67.95;98365.28;4881534;29;20407;-72
2022/08/20 09:26:39;;;;;;;4.30;3.03;;;;;;;22.36;66.06;98356.25;4875074;29;20137;-72
2022/08/20 09:29:06;;;;;;;12.25;3.35;;;;;;;22.72;63.34;98363.31;4884252;29;20087;-72
2022/08/20 09:31:32;;;;;;;3.75;3.40;;;;;;;23.30;63.90;98352.69;4874918;29;20064;-73
2022/08/20 09:33:59;;;;;;;3.60;3.30;;;;;;;23.30;63.46;98356.25;4905645;29;20072;-72
2022/08/20 09:36:26;;;;;;;3.33;2.97;;;;;;;23.37;63.36;98354.22;4875140;29;20049;-72
2022/08/20 09:38:58;;;;;;;6.05;3.22;;;;;;;23.06;64.17;98351.94;4875261;29;20141;-71
2022/08/20 09:41:25;;;;;;;4.57;3.05;;;;;;;22.77;64.61;98349.91;4875300;29;20049;-72
2022/08/20 09:43:52;;;;;;;5.53;3.03;;;;;;;23.03;65.12;98342.44;4876793;29;20045;-72
2022/08/20 09:46:18;;;;;;;8.35;4.00;;;;;;;23.20;65.62;98348.75;4875260;29;20412;-72
2022/08/20 09:48:53;;;;;;;3.65;3.35;;;;;;;22.94;65.23;98341.13;4880997;29;20124;-72
2022/08/20 09:51:19;;;;;;;4.30;2.83;;;;;;;23.16;64.65;98341.34;4874045;29;20049;-72
2022/08/20 09:53:46;;;;;;;5.22;2.78;;;;;;;23.18;64.86;98345.47;4877903;29;20045;-72
2022/08/20 09:56:12;;;;;;;3.75;2.72;;;;;;;23.29;64.13;98341.09;4880394;29;20400;-73
2022/08/20 09:58:46;;;;;;;3.00;2.70;;;;;;;23.25;64.12;98339.09;4903975;29;20073;-72
2022/08/20 10:01:15;;;;;;;3.15;2.85;;;;;;;23.06;65.52;98339.25;4878694;29;20047;-71
2022/08/20 10:03:43;;;;;;;6.55;3.55;;;;;;;23.14;64.61;98351.56;4878044;29;20507;-71
2022/08/20 10:06:10;;;;;;;5.68;3.00;;;;;;;23.36;62.92;98351.75;4875102;29;20045;-71
2022/08/20 10:08:37;;;;;;;4.93;2.92;;;;;;;23.35;64.03;98355.50;4878845;29;20096;-71
2022/08/20 10:11:04;;;;;;;4.82;2.45;;;;;;;23.37;64.32;98354.22;4879355;29;20051;-71
2022/08/20 10:13:30;;;;;;;5.22;3.28;;;;;;;23.02;64.08;98354.28;4877838;29;20049;-71
2022/08/20 10:15:57;;;;;;;4.38;3.50;;;;;;;23.33;63.04;98354.91;4876200;29;20041;-71
2022/08/20 10:18:23;;;;;;;3.42;2.80;;;;;;;23.39;63.32;98356.69;4879193;29;20405;-71
2022/08/20 10:20:50;;;;;;;4.07;2.58;;;;;;;23.36;62.85;98357.97;4879149;29;20045;-71
2022/08/20 10:23:16;;;;;;;3.33;2.65;;;;;;;23.81;60.42;98354.56;4876993;29;20416;-71
2022/08/20 10:25:43;;;;;;;4.25;2.33;;;;;;;23.76;61.13;98351.75;4888171;29;20428;-71
2022/08/20 10:28:10;;;;;;;3.05;2.22;;;;;;;23.82;62.16;98350.78;4876984;29;20516;-71
2022/08/20 10:30:37;;;;;;;2.08;1.85;;;;;;;23.57;61.52;98345.72;4879504;29;20405;-71
2022/08/20 10:33:03;;;;;;;3.95;2.35;;;;;;;23.64;60.79;98351.78;4879737;29;20053;-71
2022/08/20 10:35:30;;;;;;;3.75;2.42;;;;;;;23.73;61.39;98352.25;4874413;29;20053;-71
2022/08/20 10:37:57;;;;;;;2.65;2.08;;;;;;;23.96;59.97;98345.94;4880690;29;20041;-71
2022/08/20 10:40:23;;;;;;;2.40;2.20;;;;;;;23.94;60.09;98342.63;4873603;29;20049;-71
2022/08/20 10:42:50;;;;;;;2.75;2.40;;;;;;;23.57;60.74;98337.59;4876517;29;20049;-71
2022/08/20 10:45:17;;;;;;;2.58;2.30;;;;;;;23.15;63.76;98345.13;4875942;29;20048;-70
2022/08/20 10:47:44;;;;;;;4.93;2.92;;;;;;;22.99;63.85;98343.97;4874021;29;20384;-71
2022/08/20 10:50:14;;;;;;;6.63;2.47;;;;;;;22.59;65.18;98333.84;4873822;29;20045;-72
2022/08/20 10:52:41;;;;;;;8.38;3.30;;;;;;;22.49;65.62;98336.34;4875708;29;20041;-72
2022/08/20 10:55:09;;;;;;;3.08;2.40;;;;;;;22.62;65.48;98340.66;4885556;29;20849;-71
2022/08/20 10:57:37;;;;;;;3.67;2.13;;;;;;;22.91;63.50;98328.13;4875358;29;20037;-72
2022/08/20 11:00:06;;;;;;;3.85;2.05;;;;;;;23.14;61.12;98335.38;4879820;29;20049;-72
2022/08/20 11:02:33;;;;;;;1.90;1.55;;;;;;;23.23;61.86;98334.78;4874482;29;20055;-72
2022/08/20 11:04:59;;;;;;;3.05;2.72;;;;;;;23.86;60.84;98332.22;4882737;29;20093;-71
2022/08/20 11:07:29;;;;;;;3.25;2.80;;;;;;;24.20;57.16;98337.69;4872881;29;20048;-72
2022/08/20 11:10:16;;;;;;;2.75;2.55;;;;;;;23.55;58.96;98344.31;4898008;29;20042;-71
2022/08/20 11:12:43;;;;;;;3.25;2.72;;;;;;;23.17;61.94;98338.44;4871212;29;20064;-72
2022/08/20 11:15:12;;;;;;;5.43;3.33;;;;;;;22.81;62.97;98334.09;4875718;29;20515;-72
2022/08/20 11:17:41;;;;;;;4.35;2.92;;;;;;;22.61;63.34;98347.13;4870160;29;20420;-72
2022/08/20 11:20:10;;;;;;;4.20;2.42;;;;;;;22.41;64.50;98336.66;4908168;29;20044;-72
2022/08/20 11:22:36;;;;;;;6.03;2.72;;;;;;;22.26;65.75;98343.34;4875148;29;20045;-71
2022/08/20 11:25:04;;;;;;;4.70;2.78;;;;;;;22.12;66.52;98341.88;4873183;29;20059;-72
2022/08/20 11:27:37;;;;;;;4.38;3.40;;;;;;;22.10;66.80;98357.44;4874957;29;20044;-71
2022/08/20 11:30:07;;;;;;;3.60;2.95;;;;;;;22.05;67.76;98351.94;4877549;29;20108;-71
2022/08/20 11:32:34;;;;;;;4.80;3.55;;;;;;;22.01;67.88;98351.59;4871882;29;20049;-71
2022/08/20 11:35:02;;;;;;;3.78;3.47;;;;;;;22.14;66.96;98350.53;4874511;29;20061;-71
2022/08/20 11:37:52;;;;;;;4.70;3.65;;;;;;;22.01;68.49;98346.19;4875386;29;20041;-71
2022/08/20 11:40:19;;;;;;;9.45;3.85;;;;;;;22.13;67.79;98354.28;4875826;29;20052;-71
2022/08/20 11:42:46;;;;;;;5.57;4.68;;;;;;;22.34;67.18;98351.06;4872566;29;20077;-70
2022/08/20 11:45:33;;;;;;;4.90;3.67;;;;;;;22.52;66.51;98354.75;4872585;29;20060;-72
2022/08/20 11:48:03;;;;;;;4.38;3.97;;;;;;;22.34;66.76;98361.84;4880228;29;20055;-71
2022/08/20 11:50:30;;;;;;;4.15;3.50;;;;;;;22.01;67.75;98358.81;4872524;29;20050;-71